CCA122 ZKPY-ZBAA
Flight info
| Callsign | CCA122 |
|---|---|
| Flight time | 1h 33m |
| Altitude | 40100 |
| Route | JON11D JONJU L683 YOMJU A575 GOLOT A345 BIDIB A575 UKDUM W49 OSUBA OSUBA7X |
| Aircraft | A359/H-SDE2E3GHIJ3J4J5LM1ORWXY/LB1D1 |
Departure
| Time | 2026-05-07 01:16 |
|---|---|
| Airport | Pyongyang Sunan International Airport (ZKPY) |
Arrival
| Time | 2026-05-07 02:50 |
|---|---|
| Airport | Beijing Capital International Airport (ZBAA) |
| Time | Latitude | Longitude | Altitude | Speed | Heading |
|---|---|---|---|---|---|
| 2026-05-07 00:55 | 39.19836 | 125.67653 | 92 ft | 0 kts | 43° |
| 2026-05-07 01:10 | 39.19851 | 125.67653 | 95 ft | 5 kts | 352° |
| 2026-05-07 01:10 | 39.19871 | 125.67622 | 92 ft | 5 kts | 290° |
| 2026-05-07 01:10 | 39.19892 | 125.67557 | 96 ft | 10 kts | 313° |
| 2026-05-07 01:10 | 39.19968 | 125.67513 | 95 ft | 14 kts | 342° |
| 2026-05-07 01:11 | 39.20063 | 125.67474 | 92 ft | 15 kts | 343° |
| 2026-05-07 01:11 | 39.20164 | 125.67434 | 94 ft | 16 kts | 343° |
| 2026-05-07 01:11 | 39.20270 | 125.67393 | 94 ft | 16 kts | 343° |
| 2026-05-07 01:11 | 39.20381 | 125.67350 | 92 ft | 17 kts | 343° |
| 2026-05-07 01:12 | 39.20496 | 125.67305 | 92 ft | 18 kts | 343° |
| 2026-05-07 01:12 | 39.20613 | 125.67259 | 95 ft | 18 kts | 343° |
| 2026-05-07 01:12 | 39.20736 | 125.67211 | 93 ft | 19 kts | 343° |
| 2026-05-07 01:12 | 39.20862 | 125.67163 | 93 ft | 19 kts | 343° |
| 2026-05-07 01:13 | 39.20991 | 125.67113 | 94 ft | 20 kts | 343° |
| 2026-05-07 01:13 | 39.21123 | 125.67062 | 92 ft | 20 kts | 343° |
| 2026-05-07 01:13 | 39.21258 | 125.67009 | 92 ft | 20 kts | 343° |
| 2026-05-07 01:13 | 39.21395 | 125.66956 | 92 ft | 21 kts | 343° |
| 2026-05-07 01:14 | 39.21528 | 125.66903 | 92 ft | 19 kts | 343° |
| 2026-05-07 01:14 | 39.21657 | 125.66853 | 92 ft | 20 kts | 343° |
| 2026-05-07 01:14 | 39.21791 | 125.66801 | 92 ft | 20 kts | 343° |
| 2026-05-07 01:14 | 39.21924 | 125.66749 | 92 ft | 19 kts | 343° |
| 2026-05-07 01:15 | 39.22021 | 125.66710 | 92 ft | 13 kts | 340° |
| 2026-05-07 01:15 | 39.22060 | 125.66620 | 92 ft | 12 kts | 263° |
| 2026-05-07 01:15 | 39.22034 | 125.66515 | 92 ft | 12 kts | 241° |
| 2026-05-07 01:15 | 39.21952 | 125.66479 | 94 ft | 19 kts | 172° |
| 2026-05-07 01:16 | 39.21635 | 125.66601 | 94 ft | 91 kts | 163° |
| 2026-05-07 01:16 | 39.20741 | 125.66959 | 129 ft | 173 kts | 163° |
| 2026-05-07 01:16 | 39.19562 | 125.67437 | 1025 ft | 184 kts | 164° |
| 2026-05-07 01:16 | 39.18283 | 125.67831 | 2111 ft | 193 kts | 179° |
| 2026-05-07 01:17 | 39.17120 | 125.67295 | 3032 ft | 173 kts | 224° |
| 2026-05-07 01:17 | 39.16652 | 125.65885 | 3509 ft | 183 kts | 269° |
| 2026-05-07 01:17 | 39.17126 | 125.64325 | 3866 ft | 197 kts | 305° |
| 2026-05-07 01:17 | 39.18174 | 125.63095 | 4234 ft | 214 kts | 327° |
| 2026-05-07 01:18 | 39.19545 | 125.62195 | 4675 ft | 227 kts | 333° |
| 2026-05-07 01:18 | 39.21019 | 125.61307 | 5141 ft | 240 kts | 333° |
| 2026-05-07 01:18 | 39.22561 | 125.60338 | 5604 ft | 253 kts | 332° |
| 2026-05-07 01:18 | 39.24170 | 125.59300 | 6057 ft | 263 kts | 331° |
| 2026-05-07 01:19 | 39.25827 | 125.58211 | 6626 ft | 270 kts | 331° |
| 2026-05-07 01:19 | 39.27506 | 125.57092 | 7298 ft | 272 kts | 330° |
| 2026-05-07 01:19 | 39.29171 | 125.55977 | 7961 ft | 274 kts | 330° |
| 2026-05-07 01:19 | 39.30869 | 125.54835 | 8600 ft | 277 kts | 330° |
| 2026-05-07 01:20 | 39.32581 | 125.53682 | 9245 ft | 279 kts | 330° |
| 2026-05-07 01:20 | 39.34308 | 125.52518 | 9883 ft | 281 kts | 330° |
| 2026-05-07 01:20 | 39.36070 | 125.51331 | 10322 ft | 292 kts | 329° |
| 2026-05-07 01:20 | 39.37925 | 125.50076 | 10598 ft | 307 kts | 329° |
| 2026-05-07 01:21 | 39.39860 | 125.48752 | 10864 ft | 321 kts | 328° |
| 2026-05-07 01:21 | 39.41875 | 125.47380 | 11074 ft | 335 kts | 328° |
| 2026-05-07 01:21 | 39.43977 | 125.45971 | 11249 ft | 346 kts | 328° |
| 2026-05-07 01:21 | 39.46159 | 125.44500 | 11412 ft | 359 kts | 328° |
| 2026-05-07 01:22 | 39.48334 | 125.42944 | 11795 ft | 363 kts | 323° |
| 2026-05-07 01:22 | 39.50356 | 125.40993 | 12271 ft | 363 kts | 316° |
| 2026-05-07 01:22 | 39.52321 | 125.38912 | 12718 ft | 366 kts | 315° |
| 2026-05-07 01:22 | 39.54289 | 125.36808 | 13192 ft | 368 kts | 315° |
| 2026-05-07 01:23 | 39.56276 | 125.34691 | 13662 ft | 370 kts | 315° |
| 2026-05-07 01:23 | 39.58272 | 125.32570 | 14149 ft | 371 kts | 315° |
| 2026-05-07 01:23 | 39.59596 | 125.31164 | 14452 ft | 373 kts | 315° |
| 2026-05-07 01:23 | 39.62296 | 125.28298 | 15027 ft | 376 kts | 314° |
| 2026-05-07 01:24 | 39.64326 | 125.26142 | 15481 ft | 378 kts | 314° |
| 2026-05-07 01:24 | 39.66364 | 125.23977 | 15926 ft | 380 kts | 314° |
| 2026-05-07 01:24 | 39.67718 | 125.22528 | 16219 ft | 381 kts | 313° |
| 2026-05-07 01:24 | 39.69680 | 125.20225 | 16675 ft | 380 kts | 309° |
| 2026-05-07 01:25 | 39.71558 | 125.17813 | 17122 ft | 380 kts | 307° |
| 2026-05-07 01:25 | 39.73987 | 125.14529 | 17674 ft | 381 kts | 306° |
| 2026-05-07 01:25 | 39.75221 | 125.12834 | 17948 ft | 383 kts | 306° |
| 2026-05-07 01:25 | 39.77654 | 125.09494 | 18452 ft | 387 kts | 306° |
| 2026-05-07 01:26 | 39.78912 | 125.07778 | 18707 ft | 387 kts | 306° |
| 2026-05-07 01:26 | 39.80786 | 125.05234 | 19094 ft | 390 kts | 306° |
| 2026-05-07 01:26 | 39.82650 | 125.02715 | 19467 ft | 392 kts | 306° |
| 2026-05-07 01:26 | 39.84543 | 125.00157 | 19790 ft | 394 kts | 306° |
| 2026-05-07 01:27 | 39.86460 | 124.97567 | 20096 ft | 397 kts | 306° |
| 2026-05-07 01:27 | 39.88394 | 124.94960 | 20401 ft | 400 kts | 306° |
| 2026-05-07 01:27 | 39.90337 | 124.92342 | 20749 ft | 402 kts | 306° |
| 2026-05-07 01:27 | 39.92284 | 124.89716 | 21083 ft | 405 kts | 306° |
| 2026-05-07 01:28 | 39.94220 | 124.87100 | 21388 ft | 407 kts | 306° |
| 2026-05-07 01:28 | 39.96193 | 124.84434 | 21712 ft | 409 kts | 306° |
| 2026-05-07 01:28 | 39.98177 | 124.81752 | 21991 ft | 411 kts | 306° |
| 2026-05-07 01:28 | 40.00171 | 124.79048 | 22273 ft | 414 kts | 306° |
| 2026-05-07 01:29 | 40.02174 | 124.76328 | 22585 ft | 416 kts | 305° |
| 2026-05-07 01:29 | 40.04181 | 124.73594 | 22854 ft | 419 kts | 305° |
| 2026-05-07 01:29 | 40.06176 | 124.70874 | 23114 ft | 421 kts | 305° |
| 2026-05-07 01:29 | 40.08209 | 124.68101 | 23367 ft | 423 kts | 305° |
| 2026-05-07 01:30 | 40.10247 | 124.65323 | 23671 ft | 424 kts | 305° |
| 2026-05-07 01:30 | 40.12300 | 124.62521 | 23894 ft | 428 kts | 305° |
| 2026-05-07 01:30 | 40.14362 | 124.59703 | 24140 ft | 430 kts | 305° |
| 2026-05-07 01:30 | 40.16432 | 124.56874 | 24454 ft | 430 kts | 305° |
| 2026-05-07 01:31 | 40.18469 | 124.54016 | 24738 ft | 427 kts | 302° |
| 2026-05-07 01:31 | 40.20189 | 124.50907 | 25035 ft | 417 kts | 292° |
| 2026-05-07 01:31 | 40.21420 | 124.47574 | 25338 ft | 407 kts | 283° |
| 2026-05-07 01:31 | 40.22345 | 124.44091 | 25690 ft | 404 kts | 280° |
| 2026-05-07 01:32 | 40.23286 | 124.40622 | 26033 ft | 407 kts | 284° |
| 2026-05-07 01:32 | 40.24522 | 124.37248 | 26337 ft | 415 kts | 291° |
| 2026-05-07 01:32 | 40.26160 | 124.34080 | 26623 ft | 426 kts | 300° |
| 2026-05-07 01:32 | 40.28250 | 124.31242 | 26941 ft | 440 kts | 310° |
| 2026-05-07 01:33 | 40.30777 | 124.28893 | 27296 ft | 453 kts | 320° |
| 2026-05-07 01:33 | 40.33698 | 124.27154 | 27586 ft | 469 kts | 331° |
| 2026-05-07 01:33 | 40.36937 | 124.26150 | 27871 ft | 488 kts | 343° |
| 2026-05-07 01:33 | 40.40377 | 124.25992 | 28213 ft | 502 kts | 354° |
| 2026-05-07 01:34 | 40.43848 | 124.25921 | 28500 ft | 496 kts | 347° |
| 2026-05-07 01:34 | 40.47298 | 124.25674 | 28825 ft | 498 kts | 347° |
| 2026-05-07 01:34 | 40.50759 | 124.25402 | 29147 ft | 498 kts | 346° |
| 2026-05-07 01:34 | 40.54227 | 124.25086 | 29402 ft | 500 kts | 345° |
| 2026-05-07 01:35 | 40.57706 | 124.24726 | 29712 ft | 501 kts | 345° |
| 2026-05-07 01:35 | 40.61144 | 124.24349 | 29964 ft | 503 kts | 344° |
| 2026-05-07 01:35 | 40.64638 | 124.23956 | 30270 ft | 504 kts | 344° |
| 2026-05-07 01:35 | 40.68149 | 124.23554 | 30515 ft | 507 kts | 344° |
| 2026-05-07 01:36 | 40.71677 | 124.23147 | 30807 ft | 509 kts | 343° |
| 2026-05-07 01:36 | 40.75213 | 124.22741 | 31099 ft | 511 kts | 343° |
| 2026-05-07 01:36 | 40.78758 | 124.22334 | 31368 ft | 513 kts | 343° |
| 2026-05-07 01:36 | 40.82326 | 124.21910 | 31700 ft | 515 kts | 343° |
| 2026-05-07 01:37 | 40.85906 | 124.21495 | 31964 ft | 517 kts | 343° |
| 2026-05-07 01:37 | 40.89495 | 124.21089 | 32257 ft | 519 kts | 343° |
| 2026-05-07 01:37 | 40.93109 | 124.20682 | 32477 ft | 521 kts | 343° |
| 2026-05-07 01:37 | 40.96717 | 124.20278 | 32820 ft | 520 kts | 343° |
| 2026-05-07 01:38 | 41.00325 | 124.19876 | 33177 ft | 519 kts | 343° |
| 2026-05-07 01:38 | 41.03880 | 124.19476 | 33530 ft | 518 kts | 342° |
| 2026-05-07 01:38 | 41.07474 | 124.19082 | 33932 ft | 516 kts | 343° |
| 2026-05-07 01:38 | 41.11055 | 124.18757 | 34396 ft | 514 kts | 343° |
| 2026-05-07 01:39 | 41.14635 | 124.18469 | 34696 ft | 515 kts | 343° |
| 2026-05-07 01:39 | 41.18227 | 124.18188 | 34973 ft | 516 kts | 344° |
| 2026-05-07 01:39 | 41.21813 | 124.17902 | 35346 ft | 515 kts | 343° |
| 2026-05-07 01:39 | 41.25387 | 124.17613 | 35670 ft | 515 kts | 344° |
| 2026-05-07 01:40 | 41.28917 | 124.17317 | 35908 ft | 515 kts | 344° |
| 2026-05-07 01:40 | 41.32399 | 124.16608 | 36161 ft | 496 kts | 333° |
| 2026-05-07 01:40 | 41.35601 | 124.15134 | 36391 ft | 478 kts | 323° |
| 2026-05-07 01:40 | 41.38470 | 124.13058 | 36695 ft | 461 kts | 314° |
| 2026-05-07 01:41 | 41.40980 | 124.10518 | 36967 ft | 445 kts | 306° |
| 2026-05-07 01:41 | 41.43113 | 124.07616 | 37277 ft | 431 kts | 299° |
| 2026-05-07 01:41 | 41.44863 | 124.04446 | 37587 ft | 420 kts | 292° |
| 2026-05-07 01:41 | 41.46241 | 124.01069 | 37833 ft | 410 kts | 285° |
| 2026-05-07 01:42 | 41.47238 | 123.97595 | 38009 ft | 403 kts | 279° |
| 2026-05-07 01:42 | 41.47881 | 123.93978 | 38171 ft | 399 kts | 273° |
| 2026-05-07 01:42 | 41.48159 | 123.90308 | 38316 ft | 396 kts | 266° |
| 2026-05-07 01:42 | 41.48077 | 123.86653 | 38529 ft | 393 kts | 261° |
| 2026-05-07 01:43 | 41.47646 | 123.83057 | 38772 ft | 390 kts | 255° |
| 2026-05-07 01:43 | 41.46979 | 123.79542 | 38952 ft | 390 kts | 256° |
| 2026-05-07 01:43 | 41.46468 | 123.76014 | 38999 ft | 395 kts | 259° |
| 2026-05-07 01:43 | 41.46216 | 123.72340 | 39180 ft | 399 kts | 265° |
| 2026-05-07 01:44 | 41.46305 | 123.68636 | 39450 ft | 401 kts | 271° |
| 2026-05-07 01:44 | 41.46620 | 123.64916 | 39619 ft | 404 kts | 272° |
| 2026-05-07 01:44 | 41.47009 | 123.61193 | 39721 ft | 407 kts | 273° |
| 2026-05-07 01:44 | 41.47437 | 123.57461 | 39881 ft | 408 kts | 274° |
| 2026-05-07 01:45 | 41.47879 | 123.53721 | 40037 ft | 409 kts | 274° |
| 2026-05-07 01:45 | 41.48753 | 123.46263 | 40066 ft | 409 kts | 274° |
| 2026-05-07 01:46 | 41.49613 | 123.38707 | 40065 ft | 410 kts | 274° |
| 2026-05-07 01:46 | 41.50444 | 123.31243 | 40065 ft | 409 kts | 274° |
| 2026-05-07 01:47 | 41.51301 | 123.23731 | 40073 ft | 410 kts | 274° |
| 2026-05-07 01:47 | 41.52231 | 123.16216 | 40069 ft | 411 kts | 275° |
| 2026-05-07 01:48 | 41.53162 | 123.08699 | 40057 ft | 411 kts | 275° |
| 2026-05-07 01:48 | 41.54078 | 123.01175 | 40070 ft | 411 kts | 275° |
| 2026-05-07 01:49 | 41.54987 | 122.93580 | 40072 ft | 418 kts | 275° |
| 2026-05-07 01:49 | 41.55902 | 122.85889 | 40076 ft | 424 kts | 275° |
| 2026-05-07 01:50 | 41.56831 | 122.78058 | 40068 ft | 428 kts | 275° |
| 2026-05-07 01:50 | 41.57760 | 122.70198 | 40075 ft | 429 kts | 275° |
| 2026-05-07 01:51 | 41.58685 | 122.62316 | 40064 ft | 429 kts | 275° |
| 2026-05-07 01:51 | 41.59600 | 122.54461 | 40059 ft | 430 kts | 275° |
| 2026-05-07 01:52 | 41.60516 | 122.46548 | 40074 ft | 431 kts | 275° |
| 2026-05-07 01:52 | 41.61430 | 122.38604 | 40072 ft | 433 kts | 275° |
| 2026-05-07 01:53 | 41.62340 | 122.30639 | 40075 ft | 434 kts | 275° |
| 2026-05-07 01:53 | 41.63243 | 122.22699 | 40071 ft | 435 kts | 275° |
| 2026-05-07 01:54 | 41.64127 | 122.14687 | 40072 ft | 434 kts | 272° |
| 2026-05-07 01:54 | 41.64147 | 122.06660 | 40068 ft | 431 kts | 264° |
| 2026-05-07 01:55 | 41.63632 | 121.98669 | 40074 ft | 431 kts | 263° |
| 2026-05-07 01:55 | 41.63029 | 121.90684 | 40075 ft | 432 kts | 262° |
| 2026-05-07 01:56 | 41.62423 | 121.82681 | 40063 ft | 432 kts | 262° |
| 2026-05-07 01:56 | 41.61830 | 121.74743 | 40078 ft | 432 kts | 263° |
| 2026-05-07 01:57 | 41.61235 | 121.66752 | 40082 ft | 431 kts | 263° |
| 2026-05-07 01:57 | 41.60634 | 121.58767 | 40081 ft | 431 kts | 263° |
| 2026-05-07 01:58 | 41.60028 | 121.50785 | 40091 ft | 431 kts | 263° |
| 2026-05-07 01:58 | 41.59418 | 121.42822 | 40089 ft | 430 kts | 262° |
| 2026-05-07 01:59 | 41.58804 | 121.34885 | 40099 ft | 429 kts | 262° |
| 2026-05-07 01:59 | 41.58185 | 121.26982 | 40099 ft | 429 kts | 262° |
| 2026-05-07 02:00 | 41.57559 | 121.19045 | 40099 ft | 429 kts | 262° |
| 2026-05-07 02:00 | 41.57053 | 121.11133 | 40099 ft | 429 kts | 264° |
| 2026-05-07 02:01 | 41.56714 | 121.03157 | 40104 ft | 429 kts | 265° |
| 2026-05-07 02:01 | 41.56429 | 120.96606 | 40107 ft | 429 kts | 265° |
| 2026-05-07 02:02 | 41.56033 | 120.88344 | 40109 ft | 430 kts | 264° |
| 2026-05-07 02:02 | 41.55630 | 120.80412 | 40109 ft | 430 kts | 264° |
| 2026-05-07 02:03 | 41.55217 | 120.72433 | 40109 ft | 431 kts | 264° |
| 2026-05-07 02:03 | 41.54799 | 120.64446 | 40115 ft | 431 kts | 264° |
| 2026-05-07 02:04 | 41.54374 | 120.56439 | 40118 ft | 432 kts | 264° |
| 2026-05-07 02:04 | 41.53944 | 120.48424 | 40117 ft | 433 kts | 264° |
| 2026-05-07 02:05 | 41.53535 | 120.40440 | 40117 ft | 435 kts | 265° |
| 2026-05-07 02:05 | 41.53417 | 120.32359 | 40118 ft | 436 kts | 268° |
| 2026-05-07 02:06 | 41.53390 | 120.24261 | 40126 ft | 436 kts | 267° |
| 2026-05-07 02:06 | 41.53319 | 120.16150 | 40125 ft | 437 kts | 267° |
| 2026-05-07 02:07 | 41.53209 | 120.08070 | 40127 ft | 438 kts | 267° |
| 2026-05-07 02:07 | 41.53015 | 119.95866 | 40125 ft | 438 kts | 267° |
| 2026-05-07 02:08 | 41.52882 | 119.87733 | 40133 ft | 438 kts | 267° |
| 2026-05-07 02:08 | 41.52745 | 119.79648 | 40136 ft | 438 kts | 267° |
| 2026-05-07 02:09 | 41.52602 | 119.71504 | 40136 ft | 438 kts | 267° |
| 2026-05-07 02:09 | 41.52453 | 119.63377 | 40136 ft | 438 kts | 267° |
| 2026-05-07 02:10 | 41.52299 | 119.55255 | 40134 ft | 437 kts | 267° |
| 2026-05-07 02:10 | 41.52139 | 119.47141 | 40146 ft | 437 kts | 267° |
| 2026-05-07 02:11 | 41.51973 | 119.39044 | 40146 ft | 436 kts | 267° |
| 2026-05-07 02:11 | 41.51803 | 119.30997 | 40152 ft | 436 kts | 267° |
| 2026-05-07 02:12 | 41.51626 | 119.22918 | 40178 ft | 435 kts | 267° |
| 2026-05-07 02:12 | 41.51444 | 119.14842 | 40182 ft | 435 kts | 267° |
| 2026-05-07 02:13 | 41.51258 | 119.06816 | 40183 ft | 435 kts | 267° |
| 2026-05-07 02:13 | 41.51064 | 118.98741 | 40189 ft | 434 kts | 267° |
| 2026-05-07 02:14 | 41.50900 | 118.92048 | 40191 ft | 435 kts | 267° |
| 2026-05-07 02:14 | 41.50695 | 118.83979 | 40192 ft | 435 kts | 267° |
| 2026-05-07 02:15 | 41.50486 | 118.75887 | 40204 ft | 436 kts | 267° |
| 2026-05-07 02:15 | 41.50296 | 118.67801 | 40203 ft | 436 kts | 268° |
| 2026-05-07 02:16 | 41.50117 | 118.59740 | 40199 ft | 437 kts | 268° |
| 2026-05-07 02:16 | 41.49929 | 118.51627 | 40212 ft | 437 kts | 268° |
| 2026-05-07 02:17 | 41.49733 | 118.43507 | 40210 ft | 438 kts | 268° |
| 2026-05-07 02:17 | 41.49747 | 118.35382 | 40216 ft | 438 kts | 270° |
| 2026-05-07 02:18 | 41.49912 | 118.27228 | 40221 ft | 440 kts | 270° |
| 2026-05-07 02:18 | 41.50047 | 118.19120 | 40218 ft | 440 kts | 270° |
| 2026-05-07 02:19 | 41.50142 | 118.10945 | 40217 ft | 439 kts | 270° |
| 2026-05-07 02:19 | 41.50181 | 118.06908 | 40099 ft | 432 kts | 270° |
| 2026-05-07 02:19 | 41.50218 | 118.02915 | 39851 ft | 428 kts | 270° |
| 2026-05-07 02:20 | 41.50253 | 117.98957 | 39603 ft | 426 kts | 270° |
| 2026-05-07 02:20 | 41.50287 | 117.94992 | 39354 ft | 425 kts | 270° |
| 2026-05-07 02:20 | 41.50318 | 117.91060 | 39107 ft | 424 kts | 270° |
| 2026-05-07 02:20 | 41.50350 | 117.87129 | 38857 ft | 423 kts | 270° |
| 2026-05-07 02:21 | 41.50377 | 117.83217 | 38608 ft | 422 kts | 270° |
| 2026-05-07 02:21 | 41.50405 | 117.79358 | 38364 ft | 421 kts | 270° |
| 2026-05-07 02:21 | 41.50434 | 117.75439 | 38115 ft | 421 kts | 270° |
| 2026-05-07 02:21 | 41.50460 | 117.71525 | 37864 ft | 421 kts | 270° |
| 2026-05-07 02:22 | 41.50486 | 117.67616 | 37621 ft | 421 kts | 270° |
| 2026-05-07 02:22 | 41.50511 | 117.63716 | 37371 ft | 421 kts | 270° |
| 2026-05-07 02:22 | 41.50533 | 117.59819 | 37122 ft | 420 kts | 270° |
| 2026-05-07 02:22 | 41.50546 | 117.55916 | 36947 ft | 420 kts | 269° |
| 2026-05-07 02:23 | 41.50383 | 117.52043 | 36493 ft | 415 kts | 264° |
| 2026-05-07 02:23 | 41.49877 | 117.48231 | 35607 ft | 420 kts | 257° |
| 2026-05-07 02:23 | 41.48981 | 117.44559 | 34697 ft | 426 kts | 250° |
| 2026-05-07 02:23 | 41.47651 | 117.40975 | 33703 ft | 434 kts | 242° |
| 2026-05-07 02:24 | 41.45895 | 117.37642 | 32742 ft | 442 kts | 234° |
| 2026-05-07 02:24 | 41.43744 | 117.34660 | 31739 ft | 451 kts | 227° |
| 2026-05-07 02:24 | 41.41177 | 117.32149 | 30693 ft | 464 kts | 216° |
| 2026-05-07 02:24 | 41.38185 | 117.30372 | 29647 ft | 477 kts | 206° |
| 2026-05-07 02:25 | 41.35009 | 117.29025 | 28746 ft | 478 kts | 204° |
| 2026-05-07 02:25 | 41.31873 | 117.27755 | 28002 ft | 474 kts | 204° |
| 2026-05-07 02:25 | 41.28727 | 117.26474 | 27226 ft | 471 kts | 204° |
| 2026-05-07 02:25 | 41.25604 | 117.25189 | 26490 ft | 468 kts | 204° |
| 2026-05-07 02:26 | 41.22506 | 117.23910 | 25743 ft | 464 kts | 204° |
| 2026-05-07 02:26 | 41.19432 | 117.22635 | 25043 ft | 460 kts | 204° |
| 2026-05-07 02:26 | 41.16388 | 117.21373 | 24319 ft | 457 kts | 204° |
| 2026-05-07 02:26 | 41.13371 | 117.20121 | 23585 ft | 453 kts | 204° |
| 2026-05-07 02:27 | 41.10376 | 117.18878 | 22863 ft | 449 kts | 204° |
| 2026-05-07 02:27 | 41.07396 | 117.17642 | 22098 ft | 446 kts | 204° |
| 2026-05-07 02:27 | 41.04438 | 117.16416 | 21362 ft | 443 kts | 203° |
| 2026-05-07 02:27 | 41.01503 | 117.15202 | 20628 ft | 440 kts | 203° |
| 2026-05-07 02:28 | 40.98623 | 117.14012 | 19863 ft | 438 kts | 203° |
| 2026-05-07 02:28 | 40.95722 | 117.12813 | 19110 ft | 435 kts | 203° |
| 2026-05-07 02:28 | 40.92839 | 117.11624 | 18390 ft | 432 kts | 203° |
| 2026-05-07 02:28 | 40.89978 | 117.10446 | 17565 ft | 424 kts | 202° |
| 2026-05-07 02:29 | 40.87189 | 117.09301 | 16256 ft | 419 kts | 202° |
| 2026-05-07 02:29 | 40.84436 | 117.08168 | 15490 ft | 410 kts | 202° |
| 2026-05-07 02:29 | 40.81723 | 117.07051 | 14880 ft | 407 kts | 202° |
| 2026-05-07 02:29 | 40.79029 | 117.05943 | 14236 ft | 405 kts | 201° |
| 2026-05-07 02:30 | 40.76353 | 117.04842 | 13596 ft | 402 kts | 201° |
| 2026-05-07 02:30 | 40.73776 | 117.03502 | 12952 ft | 395 kts | 212° |
| 2026-05-07 02:30 | 40.71582 | 117.01420 | 12573 ft | 387 kts | 224° |
| 2026-05-07 02:30 | 40.69566 | 116.99119 | 12228 ft | 389 kts | 225° |
| 2026-05-07 02:31 | 40.67533 | 116.96763 | 11903 ft | 389 kts | 225° |
| 2026-05-07 02:31 | 40.65481 | 116.94424 | 11771 ft | 391 kts | 225° |
| 2026-05-07 02:31 | 40.63419 | 116.92084 | 11621 ft | 391 kts | 225° |
| 2026-05-07 02:31 | 40.61360 | 116.89752 | 11479 ft | 391 kts | 225° |
| 2026-05-07 02:32 | 40.59298 | 116.87422 | 11310 ft | 391 kts | 225° |
| 2026-05-07 02:32 | 40.57230 | 116.85088 | 11160 ft | 392 kts | 225° |
| 2026-05-07 02:32 | 40.55162 | 116.82750 | 10874 ft | 391 kts | 225° |
| 2026-05-07 02:32 | 40.53097 | 116.80422 | 10684 ft | 388 kts | 224° |
| 2026-05-07 02:33 | 40.51087 | 116.78161 | 10528 ft | 371 kts | 224° |
| 2026-05-07 02:33 | 40.49165 | 116.76007 | 10374 ft | 356 kts | 225° |
| 2026-05-07 02:33 | 40.47348 | 116.73970 | 10232 ft | 340 kts | 225° |
| 2026-05-07 02:33 | 40.45584 | 116.71989 | 10105 ft | 326 kts | 225° |
| 2026-05-07 02:34 | 40.43888 | 116.70094 | 9965 ft | 314 kts | 225° |
| 2026-05-07 02:34 | 40.42045 | 116.68586 | 9849 ft | 315 kts | 204° |
| 2026-05-07 02:34 | 40.39861 | 116.68171 | 9753 ft | 320 kts | 177° |
| 2026-05-07 02:34 | 40.37645 | 116.68462 | 9558 ft | 320 kts | 172° |
| 2026-05-07 02:35 | 40.35434 | 116.68853 | 9403 ft | 321 kts | 172° |
| 2026-05-07 02:35 | 40.33222 | 116.69231 | 9238 ft | 321 kts | 172° |
| 2026-05-07 02:35 | 40.31038 | 116.69592 | 9099 ft | 320 kts | 172° |
| 2026-05-07 02:35 | 40.28825 | 116.69947 | 8949 ft | 320 kts | 172° |
| 2026-05-07 02:36 | 40.26613 | 116.70297 | 8803 ft | 319 kts | 172° |
| 2026-05-07 02:36 | 40.24413 | 116.70644 | 8653 ft | 319 kts | 172° |
| 2026-05-07 02:36 | 40.22210 | 116.70983 | 8507 ft | 318 kts | 172° |
| 2026-05-07 02:36 | 40.20017 | 116.71319 | 8356 ft | 317 kts | 172° |
| 2026-05-07 02:37 | 40.17818 | 116.71660 | 8203 ft | 317 kts | 172° |
| 2026-05-07 02:37 | 40.15634 | 116.71997 | 8068 ft | 315 kts | 172° |
| 2026-05-07 02:37 | 40.13455 | 116.72338 | 7911 ft | 315 kts | 172° |
| 2026-05-07 02:37 | 40.11284 | 116.72676 | 7756 ft | 314 kts | 172° |
| 2026-05-07 02:38 | 40.09142 | 116.73010 | 7616 ft | 314 kts | 172° |
| 2026-05-07 02:38 | 40.06943 | 116.73350 | 7469 ft | 314 kts | 172° |
| 2026-05-07 02:38 | 40.04807 | 116.73680 | 7325 ft | 312 kts | 173° |
| 2026-05-07 02:38 | 40.02648 | 116.74016 | 7113 ft | 312 kts | 172° |
| 2026-05-07 02:39 | 40.00492 | 116.74347 | 6768 ft | 310 kts | 173° |
| 2026-05-07 02:39 | 39.98359 | 116.74670 | 6407 ft | 309 kts | 173° |
| 2026-05-07 02:39 | 39.96220 | 116.74999 | 6077 ft | 307 kts | 173° |
| 2026-05-07 02:39 | 39.94109 | 116.75325 | 5721 ft | 306 kts | 173° |
| 2026-05-07 02:40 | 39.92007 | 116.75650 | 5377 ft | 303 kts | 173° |
| 2026-05-07 02:40 | 39.89917 | 116.75976 | 5028 ft | 301 kts | 173° |
| 2026-05-07 02:40 | 39.87838 | 116.76294 | 4688 ft | 299 kts | 173° |
| 2026-05-07 02:40 | 39.85785 | 116.76605 | 4372 ft | 295 kts | 173° |
| 2026-05-07 02:41 | 39.83752 | 116.76918 | 4086 ft | 288 kts | 173° |
| 2026-05-07 02:41 | 39.81830 | 116.77196 | 3923 ft | 275 kts | 175° |
| 2026-05-07 02:41 | 39.79990 | 116.76913 | 3886 ft | 260 kts | 204° |
| 2026-05-07 02:41 | 39.78546 | 116.75653 | 3885 ft | 246 kts | 235° |
| 2026-05-07 02:42 | 39.77714 | 116.73837 | 3888 ft | 224 kts | 254° |
| 2026-05-07 02:42 | 39.77200 | 116.71996 | 3902 ft | 212 kts | 261° |
| 2026-05-07 02:42 | 39.76870 | 116.70157 | 3905 ft | 204 kts | 274° |
| 2026-05-07 02:42 | 39.77194 | 116.68455 | 3901 ft | 191 kts | 305° |
| 2026-05-07 02:43 | 39.77917 | 116.67049 | 3899 ft | 188 kts | 312° |
| 2026-05-07 02:43 | 39.78977 | 116.66181 | 3900 ft | 177 kts | 345° |
| 2026-05-07 02:43 | 39.80128 | 116.65868 | 3894 ft | 163 kts | 351° |
| 2026-05-07 02:43 | 39.81241 | 116.65656 | 3881 ft | 161 kts | 352° |
| 2026-05-07 02:44 | 39.82356 | 116.65480 | 3890 ft | 160 kts | 353° |
| 2026-05-07 02:44 | 39.83464 | 116.65306 | 3902 ft | 161 kts | 352° |
| 2026-05-07 02:44 | 39.84568 | 116.65125 | 3896 ft | 160 kts | 352° |
| 2026-05-07 02:44 | 39.85675 | 116.64940 | 3892 ft | 160 kts | 352° |
| 2026-05-07 02:45 | 39.86784 | 116.64761 | 3829 ft | 160 kts | 352° |
| 2026-05-07 02:45 | 39.87874 | 116.64593 | 3641 ft | 159 kts | 353° |
| 2026-05-07 02:45 | 39.88980 | 116.64425 | 3426 ft | 160 kts | 353° |
| 2026-05-07 02:45 | 39.90086 | 116.64251 | 3202 ft | 159 kts | 352° |
| 2026-05-07 02:46 | 39.91182 | 116.64074 | 2986 ft | 158 kts | 352° |
| 2026-05-07 02:46 | 39.92275 | 116.63904 | 2775 ft | 158 kts | 352° |
| 2026-05-07 02:46 | 39.93382 | 116.63732 | 2533 ft | 163 kts | 353° |
| 2026-05-07 02:46 | 39.94496 | 116.63560 | 2325 ft | 158 kts | 352° |
| 2026-05-07 02:47 | 39.95573 | 116.63391 | 2130 ft | 152 kts | 352° |
| 2026-05-07 02:47 | 39.96584 | 116.63233 | 1938 ft | 145 kts | 351° |
| 2026-05-07 02:47 | 39.97594 | 116.63069 | 1724 ft | 144 kts | 354° |
| 2026-05-07 02:47 | 39.98596 | 116.62921 | 1539 ft | 150 kts | 353° |
| 2026-05-07 02:48 | 39.99618 | 116.62757 | 1349 ft | 147 kts | 352° |
| 2026-05-07 02:48 | 40.00623 | 116.62595 | 1141 ft | 142 kts | 351° |
| 2026-05-07 02:48 | 40.01604 | 116.62439 | 969 ft | 140 kts | 353° |
| 2026-05-07 02:48 | 40.02564 | 116.62290 | 780 ft | 139 kts | 350° |
| 2026-05-07 02:49 | 40.03523 | 116.62129 | 597 ft | 139 kts | 352° |
| 2026-05-07 02:49 | 40.04478 | 116.61984 | 407 ft | 137 kts | 353° |
| 2026-05-07 02:49 | 40.05419 | 116.61838 | 222 ft | 135 kts | 353° |
| 2026-05-07 02:49 | 40.06345 | 116.61694 | 136 ft | 130 kts | 353° |
| 2026-05-07 02:50 | 40.07119 | 116.61576 | 127 ft | 88 kts | 353° |
| 2026-05-07 02:50 | 40.07536 | 116.61510 | 125 ft | 45 kts | 353° |
| 2026-05-07 02:50 | 40.07773 | 116.61458 | 126 ft | 32 kts | 340° |
| 2026-05-07 02:50 | 40.07902 | 116.61362 | 130 ft | 14 kts | 324° |
| 2026-05-07 02:51 | 40.07963 | 116.61283 | 129 ft | 11 kts | 286° |
| 2026-05-07 02:51 | 40.07918 | 116.61218 | 126 ft | 11 kts | 184° |
| 2026-05-07 02:51 | 40.07839 | 116.61227 | 130 ft | 11 kts | 173° |
| 2026-05-07 02:51 | 40.07757 | 116.61229 | 125 ft | 10 kts | 204° |
| 2026-05-07 02:52 | 40.07728 | 116.61146 | 126 ft | 9 kts | 263° |
| 2026-05-07 02:52 | 40.07724 | 116.61061 | 130 ft | 9 kts | 280° |
| 2026-05-07 02:52 | 40.07760 | 116.61003 | 125 ft | 2 kts | 322° |
| 2026-05-07 02:52 | 40.07775 | 116.60987 | 130 ft | 2 kts | 322° |
| 2026-05-07 02:53 | 40.07782 | 116.60981 | 130 ft | 0 kts | 322° |